Date,TemperatureHighF,TemperatureAvgF,TemperatureLowF,DewpointHighF,DewpointAvgF,DewpointLowF,HumidityHigh,HumidityAvg,HumidityLow,PressureMaxIn,PressureMinIn,WindSpeedMaxMPH,WindSpeedAvgMPH,GustSpeedMaxMPH,PrecipitationSumIn
2013-10-1,63.0,52.5,44.0,39.0,37.1,34.0,77,58,34,0.00,40.00,9,7,14,0.00
2013-10-2,56.0,46.8,34.0,43.0,37.6,32.0,95,72,51,0.00,40.00,11,4,21,0.02
2013-10-3,67.0,52.7,41.0,44.0,38.9,33.0,94,64,29,0.00,40.00,12,8,21,0.03
2013-10-4,68.0,51.1,31.0,41.0,36.3,30.0,96,62,29,0.00,40.00,9,5,16,0.00
2013-10-5,69.0,49.5,33.0,40.0,36.2,32.0,96,66,30,0.00,40.00,6,3,11,0.00
2013-10-6,72.0,52.4,33.0,44.0,38.2,32.0,96,65,27,0.00,40.00,5,3,10,0.00
2013-10-7,72.0,58.9,44.0,43.0,37.7,34.0,78,48,27,0.00,40.00,19,10,29,0.00
2013-10-8,63.0,51.3,41.0,43.0,37.8,32.0,90,63,32,0.00,40.00,14,5,22,0.00
2013-10-9,63.0,50.1,35.0,42.0,36.8,34.0,97,65,36,0.00,40.00,7,4,11,0.00
2013-10-10,68.0,55.1,38.0,42.0,36.7,31.0,97,56,25,0.00,40.00,9,4,13,0.00
2013-10-11,65.0,54.7,43.0,38.0,35.3,32.0,79,50,30,0.00,40.00,10,4,15,0.00
2013-10-12,54.0,46.4,39.0,48.0,40.8,-99.9,97,83,74,0.00,40.00,6,3,8,0.03
2013-10-13,65.0,53.1,39.0,39.0,35.4,31.0,97,55,28,0.00,40.00,10,4,14,0.01
2013-10-14,65.0,50.5,36.0,36.0,31.9,29.0,81,53,26,0.00,40.00,9,5,14,0.00
2013-10-15,64.0,46.5,27.0,36.0,31.7,26.0,95,62,26,0.00,40.00,7,3,12,0.00
2013-10-16,68.0,49.5,36.0,39.0,34.9,31.0,88,63,29,0.00,40.00,5,2,12,0.00
2013-10-17,68.0,50.2,32.0,40.0,36.4,30.0,94,63,33,0.00,40.00,6,4,11,0.00
2013-10-18,66.0,45.1,29.0,39.0,34.1,28.0,95,71,33,0.00,40.00,5,3,12,0.00
2013-10-19,65.0,45.4,29.0,42.0,35.1,-99.9,96,73,40,0.00,40.00,4,2,9,0.00
2013-10-20,71.0,48.2,31.0,42.0,36.9,30.0,97,71,30,0.00,40.00,5,3,10,0.00
2013-10-21,72.0,50.1,36.0,45.0,39.7,34.0,95,72,36,0.00,40.00,5,3,8,0.00
2013-10-22,71.0,50.8,34.0,48.0,41.5,33.0,97,75,38,0.00,40.00,5,3,10,0.00
2013-10-23,71.0,52.8,33.0,47.0,42.2,32.0,98,71,39,0.00,40.00,8,4,10,0.00
2013-10-24,71.0,52.3,34.0,46.0,42.0,33.0,98,72,38,0.00,40.00,4,2,9,0.00
2013-10-25,68.0,46.7,32.0,47.0,40.3,32.0,100,82,44,0.00,40.00,5,2,9,0.00
2013-10-26,66.0,46.7,33.0,48.0,38.6,-99.9,100,80,45,0.00,40.00,5,2,8,0.00
2013-10-27,53.0,46.8,34.0,47.0,40.9,30.0,100,82,43,0.00,40.00,23,8,38,0.03
2013-10-28,54.0,47.9,38.0,32.0,22.0,-99.9,52,38,25,0.00,40.00,26,17,43,0.01
2013-10-29,56.0,41.5,28.0,25.0,21.7,19.0,73,48,24,0.00,40.00,7,4,13,0.00
2013-10-30,54.0,36.5,22.0,31.0,25.2,18.0,88,66,36,0.00,40.00,5,3,9,0.00
2013-10-31,69.0,51.8,34.0,42.0,36.9,30.0,89,60,33,0.00,40.00,22,9,32,0.00